Time;durP1;ratioP1;P1;durP2;ratioP2;P2;SDS_P1;SDS_P2;PMS_P1;PMS_P2;Temp;Humidity;BMP_temperature;BMP_pressure;BME280_temperature;BME280_humidity;BME280_pressure;Samples;Min_cycle;Max_cycle;Signal;HPM_P1;HPM_P2
2022/09/08 00:01:10;;;;;;;5.93;5.33;;;;;;;18.18;100.00;150606.63;5094776;28;20267;-61
2022/09/08 00:03:37;;;;;;;9.60;5.40;;;;;;;18.14;100.00;150596.47;5094797;28;20180;-62
2022/09/08 00:06:07;;;;;;;5.63;5.23;;;;;;;18.10;100.00;150587.56;5094349;28;20233;-60
2022/09/08 00:08:37;;;;;;;5.60;5.10;;;;;;;18.01;100.00;150563.41;5094642;28;20638;-61
2022/09/08 00:11:06;;;;;;;6.20;5.80;;;;;;;18.08;100.00;150582.47;5094382;28;20188;-61
2022/09/08 00:13:36;;;;;;;5.60;5.33;;;;;;;17.86;100.00;150526.56;5094108;28;20189;-61
2022/09/08 00:16:04;;;;;;;6.43;5.90;;;;;;;17.96;100.00;150550.69;5094046;28;20200;-60
2022/09/08 00:18:31;;;;;;;6.43;5.93;;;;;;;17.75;100.00;150499.84;5094169;28;20195;-61
2022/09/08 00:20:58;;;;;;;6.10;5.70;;;;;;;17.77;100.00;150503.69;5094091;28;20274;-61
2022/09/08 00:23:25;;;;;;;5.80;5.40;;;;;;;17.93;100.00;150544.34;5094378;28;20199;-61
2022/09/08 00:25:53;;;;;;;8.17;5.13;;;;;;;17.91;100.00;150538.00;5094281;28;20625;-61
2022/09/08 00:28:20;;;;;;;5.90;5.60;;;;;;;17.92;100.00;150541.78;5094274;28;20267;-61
2022/09/08 00:30:47;;;;;;;5.73;5.33;;;;;;;17.93;100.00;150544.34;5093912;28;20188;-62
2022/09/08 00:33:17;;;;;;;5.57;5.37;;;;;;;17.78;100.00;150506.19;5093950;28;20184;-60
2022/09/08 00:35:44;;;;;;;6.00;5.50;;;;;;;17.54;100.00;150445.16;5093883;28;20188;-62
2022/09/08 00:38:14;;;;;;;5.80;5.43;;;;;;;17.67;100.00;150478.25;5093797;28;20219;-61
2022/09/08 00:40:45;;;;;;;5.73;5.30;;;;;;;17.77;100.00;150504.97;5093901;28;20204;-61
2022/09/08 00:43:31;;;;;;;6.13;5.27;;;;;;;17.75;100.00;150499.84;5093952;28;20184;-62
2022/09/08 00:45:59;;;;;;;6.30;5.63;;;;;;;17.71;100.00;150488.41;5093572;28;20191;-61
2022/09/08 00:48:27;;;;;;;6.37;5.47;;;;;;;17.43;100.00;150418.47;5093928;28;20191;-61
2022/09/08 00:50:54;;;;;;;9.03;5.90;;;;;;;17.55;100.00;150447.69;5094071;28;20544;-61
2022/09/08 00:53:21;;;;;;;5.70;5.17;;;;;;;17.31;100.00;148928.84;5093550;28;20246;-61
2022/09/08 00:55:49;;;;;;;6.23;5.77;;;;;;;17.53;100.00;148541.41;5093508;28;20188;-61
2022/09/08 00:58:17;;;;;;;5.80;5.33;;;;;;;17.49;100.00;150061.84;5093673;28;20710;-61
2022/09/08 01:00:44;;;;;;;5.93;5.67;;;;;;;17.66;100.00;150475.69;5093565;28;20748;-61
2022/09/08 01:03:15;;;;;;;5.53;5.17;;;;;;;17.62;100.00;150465.53;5093231;28;20183;-61
2022/09/08 01:05:52;;;;;;;8.63;5.77;;;;;;;17.75;100.00;150499.84;5093067;28;20568;-60
2022/09/08 01:14:12;;;;;;;6.03;5.57;;;;;;;17.69;100.00;150484.63;5093284;28;20579;-60
2022/09/08 01:16:41;;;;;;;4.87;4.67;;;;;;;17.51;100.00;150438.81;5092669;28;20234;-61
2022/09/08 01:19:16;;;;;;;6.30;5.73;;;;;;;17.63;100.00;150469.34;5092959;28;20195;-61
2022/09/08 01:21:57;;;;;;;6.13;5.60;;;;;;;17.57;100.00;149794.66;5092921;28;20225;-61
2022/09/08 01:24:44;;;;;;;5.90;5.27;;;;;;;17.52;100.00;146713.84;5092883;28;20187;-60
2022/09/08 01:27:21;;;;;;;5.63;5.33;;;;;;;17.54;100.00;148823.38;5093168;28;20192;-61
2022/09/08 01:29:48;;;;;;;5.70;5.50;;;;;;;17.40;100.00;140638.31;5093242;28;20184;-60
2022/09/08 01:32:16;;;;;;;5.90;5.60;;;;;;;17.36;100.00;144647.72;5093032;28;20195;-61
2022/09/08 01:34:45;;;;;;;5.83;5.53;;;;;;;17.21;100.00;122803.13;5092689;28;20186;-61
2022/09/08 01:37:12;;;;;;;5.10;4.73;;;;;;;17.16;100.00;121454.84;5092582;28;20204;-61
2022/09/08 01:39:40;;;;;;;6.13;5.47;;;;;;;17.23;100.00;121468.19;5093276;28;20651;-61
2022/09/08 01:42:07;;;;;;;5.90;5.67;;;;;;;17.38;100.00;120829.53;5092713;28;20189;-61
2022/09/08 01:44:38;;;;;;;5.83;5.37;;;;;;;17.27;100.00;123820.28;5092821;28;20187;-61
2022/09/08 01:47:05;;;;;;;7.70;6.20;;;;;;;17.39;100.00;117151.47;5091655;28;20199;-61
2022/09/08 01:49:32;;;;;;;6.03;5.63;;;;;;;17.41;100.00;116820.06;5092594;28;20278;-62
2022/09/08 01:51:59;;;;;;;5.93;5.57;;;;;;;17.30;100.00;118471.19;5092352;28;20224;-61
2022/09/08 01:54:26;;;;;;;5.90;5.60;;;;;;;17.32;100.00;119478.72;5092407;28;20206;-61
2022/09/08 01:56:55;;;;;;;5.60;5.30;;;;;;;17.25;100.00;116789.44;5092408;28;20303;-60
2022/09/08 01:59:22;;;;;;;5.50;5.10;;;;;;;17.17;100.00;116106.22;5092426;28;20202;-61
2022/09/08 02:01:50;;;;;;;5.73;5.43;;;;;;;17.04;100.00;106071.34;5092188;28;20682;-61
2022/09/08 02:04:18;;;;;;;6.00;5.57;;;;;;;16.89;100.00;88438.81;5092469;28;20219;-60
2022/09/08 02:06:45;;;;;;;5.63;5.33;;;;;;;16.88;100.00;82808.69;5092238;28;20206;-61
2022/09/08 02:09:12;;;;;;;5.80;5.57;;;;;;;16.99;100.00;85470.84;5092077;28;20218;-61
2022/09/08 02:11:39;;;;;;;6.33;6.03;;;;;;;16.99;100.00;88120.94;5092269;28;20191;-61
2022/09/08 02:14:06;;;;;;;6.10;5.73;;;;;;;16.99;100.00;87458.97;5092242;28;20192;-61
2022/09/08 02:16:33;;;;;;;7.33;6.20;;;;;;;16.88;100.00;85125.25;5091044;28;20232;-61
2022/09/08 02:19:02;;;;;;;7.97;5.63;;;;;;;17.02;100.00;85144.06;5090831;28;20206;-60
2022/09/08 02:21:29;;;;;;;10.77;5.83;;;;;;;17.00;100.00;90443.00;5091853;28;20184;-61
2022/09/08 02:23:56;;;;;;;6.83;6.33;;;;;;;16.88;100.00;84793.47;5092242;28;20512;-61
2022/09/08 02:26:24;;;;;;;6.03;5.63;;;;;;;16.62;100.00;80788.44;5092097;28;20198;-61
2022/09/08 02:28:53;;;;;;;6.47;5.90;;;;;;;16.87;100.00;81814.25;5092128;28;20233;-60
2022/09/08 02:31:20;;;;;;;6.40;5.90;;;;;;;16.85;100.00;84458.88;5092178;28;20658;-60
2022/09/08 02:33:48;;;;;;;8.43;5.90;;;;;;;16.59;100.00;80453.84;5092171;28;20642;-61
2022/09/08 02:36:16;;;;;;;6.60;6.07;;;;;;;15.69;100.00;68801.97;5092011;28;20188;-61
2022/09/08 02:38:43;;;;;;;6.03;5.73;;;;;;;16.35;100.00;64602.34;5091777;28;20237;-60
2022/09/08 02:41:12;;;;;;;5.53;5.23;;;;;;;16.42;100.00;58696.34;5091805;28;20194;-61
2022/09/08 02:43:39;;;;;;;6.43;6.03;;;;;;;16.33;100.00;56390.53;5091937;28;20649;-61
2022/09/08 02:46:07;;;;;;;6.83;6.23;;;;;;;16.28;100.00;51469.81;5091967;28;20511;-62
2022/09/08 02:48:35;;;;;;;7.20;6.03;;;;;;;16.22;100.00;52446.94;5091628;28;20335;-61
2022/09/08 02:51:03;;;;;;;6.47;5.73;;;;;;;16.40;100.00;52791.00;5091516;28;20188;-61
2022/09/08 02:53:31;;;;;;;6.83;5.90;;;;;;;16.28;100.00;51142.78;5091574;28;20192;-60
2022/09/08 02:56:01;;;;;;;7.40;5.97;;;;;;;16.40;100.00;54101.97;5091826;28;20190;-61
2022/09/08 02:58:28;;;;;;;7.57;5.80;;;;;;;16.49;100.00;56733.75;5091785;28;20692;-61
2022/09/08 03:00:58;;;;;;;5.73;5.27;;;;;;;16.32;100.00;59342.69;5091732;28;20583;-61
2022/09/08 03:03:26;;;;;;;6.97;6.27;;;;;;;16.53;100.00;61663.09;5091473;28;20219;-61
2022/09/08 03:05:53;;;;;;;6.53;5.93;;;;;;;16.58;100.00;60026.22;5091683;28;20544;-61
2022/09/08 03:08:21;;;;;;;6.90;6.07;;;;;;;16.69;100.00;55441.25;5091442;28;20194;-61
2022/09/08 03:10:50;;;;;;;7.10;6.17;;;;;;;16.73;100.00;59713.19;5091328;28;20241;-61
2022/09/08 03:13:19;;;;;;;9.07;6.80;;;;;;;16.71;100.00;64642.38;5091718;28;20642;-61
2022/09/08 03:15:46;;;;;;;6.73;5.77;;;;;;;16.54;100.00;67255.06;5091314;28;20187;-62
2022/09/08 03:18:13;;;;;;;6.83;6.20;;;;;;;16.42;100.00;64610.66;5089955;28;20224;-61
2022/09/08 03:20:42;;;;;;;10.13;6.10;;;;;;;16.39;100.00;58036.88;5091230;28;20279;-61
2022/09/08 03:23:14;;;;;;;8.17;6.63;;;;;;;16.39;100.00;53117.75;5091508;28;20185;-61
2022/09/08 03:25:41;;;;;;;7.17;6.50;;;;;;;16.38;100.00;49186.75;5091474;28;20191;-61
2022/09/08 03:28:15;;;;;;;8.27;6.97;;;;;;;16.35;100.00;45912.78;5092479;28;20213;-61
2022/09/08 03:30:42;;;;;;;9.00;8.10;;;;;;;16.44;100.00;46901.66;5095093;28;20279;-61
2022/09/08 03:33:09;;;;;;;8.10;7.40;;;;;;;16.42;100.00;45918.78;5095023;28;20187;-62
2022/09/08 03:35:37;;;;;;;10.53;6.97;;;;;;;16.37;100.00;46568.44;5095016;28;20258;-61
2022/09/08 03:38:06;;;;;;;8.00;7.33;;;;;;;16.38;100.00;51151.69;5095182;28;20688;-61
2022/09/08 03:40:34;;;;;;;16.13;7.37;;;;;;;16.05;100.00;47523.19;5093981;28;20184;-60
2022/09/08 03:43:01;;;;;;;16.87;7.13;;;;;;;16.33;100.00;42316.41;5094892;28;20374;-61
2022/09/08 03:45:30;;;;;;;17.83;7.83;;;;;;;16.48;100.00;43961.06;5095068;28;20551;-60
2022/09/08 03:47:56;;;;;;;14.73;7.43;;;;;;;16.42;100.00;43303.25;5094825;28;20180;-61
2022/09/08 03:50:24;;;;;;;11.63;7.90;;;;;;;16.57;100.00;42007.53;5094901;28;20203;-61
2022/09/08 03:52:51;;;;;;;11.27;8.23;;;;;;;16.60;100.00;44624.66;5094693;28;20269;-61
2022/09/08 03:55:18;;;;;;;12.17;8.17;;;;;;;16.62;100.00;47242.84;5094841;28;20550;-61
2022/09/08 03:57:46;;;;;;;11.77;7.83;;;;;;;16.60;100.00;48223.47;5094748;28;20239;-61
2022/09/08 04:00:13;;;;;;;11.17;7.50;;;;;;;16.42;100.00;48208.31;5094838;28;20242;-61
2022/09/08 04:02:42;;;;;;;12.77;7.83;;;;;;;16.60;100.00;47241.59;5094516;28;20203;-61
2022/09/08 04:05:10;;;;;;;13.20;8.17;;;;;;;16.70;100.00;48231.88;5094690;28;20199;-61
2022/09/08 04:07:38;;;;;;;17.00;8.30;;;;;;;16.76;100.00;47582.13;5094330;28;20180;-60
2022/09/08 04:10:07;;;;;;;11.10;7.80;;;;;;;16.76;100.00;45291.38;5094617;28;20597;-60
2022/09/08 04:12:34;;;;;;;15.67;7.93;;;;;;;16.76;100.00;47909.09;5094316;28;20185;-60
2022/09/08 04:15:01;;;;;;;11.53;8.27;;;;;;;17.05;100.00;52850.13;5094280;28;20194;-61
2022/09/08 04:17:28;;;;;;;11.53;7.00;;;;;;;17.20;100.00;55489.25;5094086;28;20228;-61
2022/09/08 04:19:56;;;;;;;16.03;7.80;;;;;;;17.37;100.00;61751.84;5094432;28;20184;-61
2022/09/08 04:22:24;;;;;;;19.00;7.80;;;;;;;17.49;100.00;68023.00;5094524;28;20283;-61
2022/09/08 04:24:51;;;;;;;22.20;10.87;;;;;;;17.72;100.00;80607.69;5094275;28;20188;-61
2022/09/08 04:27:19;;;;;;;16.67;8.07;;;;;;;18.08;100.00;89943.31;5093913;28;20183;-61
2022/09/08 04:29:46;;;;;;;14.30;8.77;;;;;;;18.47;100.00;105992.06;5093939;28;20184;-61
2022/09/08 04:32:13;;;;;;;21.00;8.70;;;;;;;18.81;100.00;141154.66;5094051;28;20183;-60
2022/09/08 04:34:40;;;;;;;16.03;8.63;;;;;;;19.36;100.00;150903.03;5093750;28;20249;-61
2022/09/08 04:37:09;;;;;;;23.60;10.43;;;;;;;19.75;100.00;151001.09;5094170;28;20555;-62
2022/09/08 04:39:36;;;;;;;20.67;8.43;;;;;;;20.15;100.00;151102.94;5093301;28;20220;-62
2022/09/08 04:42:03;;;;;;;21.23;8.73;;;;;;;20.77;100.00;151258.34;5093699;28;20279;-62
2022/09/08 04:44:30;;;;;;;27.88;10.25;;;;;;;21.18;100.00;151362.84;5093720;28;20191;-61
2022/09/08 04:46:57;;;;;;;45.67;12.37;;;;;;;21.59;100.00;151466.09;5092368;28;20186;-61
2022/09/08 04:49:24;;;;;;;32.03;11.52;;;;;;;21.97;100.00;151561.75;5093810;28;20190;-62
2022/09/08 04:51:52;;;;;;;27.73;10.82;;;;;;;22.32;100.00;151649.69;5093474;28;20192;-61
2022/09/08 04:54:22;;;;;;;37.85;11.82;;;;;;;22.82;100.00;151776.03;5093739;28;20702;-61
2022/09/08 04:56:50;;;;;;;41.22;11.93;;;;;;;23.70;100.00;151998.09;5093358;28;20191;-61
2022/09/08 04:59:17;;;;;;;87.70;17.73;;;;;;;24.33;100.00;152157.69;5092102;28;20253;-60
2022/09/08 05:01:44;;;;;;;81.20;13.63;;;;;;;24.96;100.00;152316.09;5093547;28;20275;-62
2022/09/08 05:04:10;;;;;;;48.55;12.27;;;;;;;25.84;100.00;152539.75;5093207;28;20192;-61
2022/09/08 05:06:37;;;;;;;63.72;13.80;;;;;;;26.50;100.00;152704.72;5093078;28;20199;-61
2022/09/08 05:09:06;;;;;;;36.15;11.95;;;;;;;26.97;100.00;152823.72;5093092;28;20186;-62
2022/09/08 05:11:35;;;;;;;43.92;10.95;;;;;;;27.09;100.00;152854.41;5093163;28;20206;-61
2022/09/08 05:14:06;;;;;;;50.63;12.73;;;;;;;27.45;100.00;152945.25;5093089;28;20224;-61
2022/09/08 05:16:33;;;;;;;42.17;11.82;;;;;;;27.10;100.00;152856.97;5091607;28;20232;-60
2022/09/08 05:19:02;;;;;;;77.85;15.75;;;;;;;27.23;100.00;152890.25;5092873;28;20210;-61
2022/09/08 05:21:32;;;;;;;118.00;16.70;;;;;;;27.27;100.00;152900.47;5092916;28;20237;-61
2022/09/08 05:24:00;;;;;;;94.82;16.33;;;;;;;27.18;100.00;152878.72;5093169;28;20623;-62
2022/09/08 05:26:28;;;;;;;106.97;13.93;;;;;;;27.20;100.00;152883.81;5092889;28;20605;-62
2022/09/08 05:28:57;;;;;;;99.25;16.05;;;;;;;28.32;100.00;153166.75;5092645;28;20196;-62
2022/09/08 05:31:26;;;;;;;89.45;13.68;;;;;;;28.58;99.40;153232.03;5092638;28;20188;-62
2022/09/08 05:33:54;;;;;;;16.13;5.70;;;;;;;28.44;96.83;153197.47;5092682;28;20187;-63
2022/09/08 05:36:26;;;;;;;22.77;7.25;;;;;;;28.41;96.85;153188.50;5092668;28;20188;-63
2022/09/08 05:38:55;;;;;;;22.98;6.38;;;;;;;29.07;95.22;153355.03;5092780;28;20766;-62
2022/09/08 05:41:23;;;;;;;22.33;6.00;;;;;;;29.75;87.54;153529.25;5091214;28;20188;-62
2022/09/08 05:43:52;;;;;;;28.00;7.07;;;;;;;29.95;86.15;153579.31;5092376;28;20184;-62
2022/09/08 05:46:21;;;;;;;15.73;6.25;;;;;;;30.77;78.77;153786.97;5092301;28;20267;-62
2022/09/08 05:48:48;;;;;;;6.28;4.68;;;;;;;30.53;79.45;153725.44;5091955;28;20183;-61
2022/09/08 05:51:21;;;;;;;10.32;4.07;;;;;;;29.79;83.95;153539.50;5092294;28;20237;-63
2022/09/08 05:53:49;;;;;;;9.63;4.25;;;;;;;28.39;94.88;153183.41;5092089;28;20180;-65
2022/09/08 05:56:18;;;;;;;6.50;3.70;;;;;;;28.69;95.49;153258.91;5092567;28;20529;-63
2022/09/08 05:58:51;;;;;;;3.90;3.20;;;;;;;30.35;83.82;153681.81;5092052;28;20370;-63
2022/09/08 06:01:18;;;;;;;4.82;3.58;;;;;;;30.86;78.01;153810.06;5092296;28;20266;-62
2022/09/08 06:03:46;;;;;;;3.80;3.55;;;;;;;30.54;78.59;153728.03;5091891;28;20184;-62
2022/09/08 06:06:16;;;;;;;3.55;3.22;;;;;;;30.18;80.59;153636.94;5091836;28;20188;-62
2022/09/08 06:08:43;;;;;;;3.58;3.38;;;;;;;29.99;82.73;153589.56;5091658;28;20187;-63
2022/09/08 06:11:11;;;;;;;3.58;3.42;;;;;;;30.02;83.45;153595.94;5091955;28;20216;-62
2022/09/08 06:13:39;;;;;;;4.15;3.42;;;;;;;29.33;88.12;153422.94;5091742;28;20646;-62
2022/09/08 06:16:07;;;;;;;3.80;3.53;;;;;;;28.83;94.31;153294.81;5091446;28;20271;-61
2022/09/08 06:18:35;;;;;;;5.72;4.22;;;;;;;28.47;97.67;153205.19;5091645;28;20208;-62
2022/09/08 06:21:09;;;;;;;4.68;3.70;;;;;;;28.01;99.99;153087.31;5091643;28;20184;-62
2022/09/08 06:23:36;;;;;;;3.60;3.35;;;;;;;27.56;100.00;152974.72;5091795;28;20223;-62
2022/09/08 06:26:39;;;;;;;3.63;3.42;;;;;;;27.81;100.00;153037.41;5091578;28;20256;-63
2022/09/08 06:29:12;;;;;;;3.80;3.58;;;;;;;28.01;100.00;153088.59;5091298;28;20201;-62
2022/09/08 06:31:42;;;;;;;4.38;3.50;;;;;;;27.86;100.00;153048.94;5091417;28;20185;-61
2022/09/08 06:34:15;;;;;;;4.38;3.20;;;;;;;27.86;100.00;153048.94;5091566;28;20184;-62
2022/09/08 06:36:49;;;;;;;4.68;3.50;;;;;;;27.66;100.00;152999.03;5091556;28;20184;-67
2022/09/08 06:39:24;;;;;;;5.97;3.53;;;;;;;27.96;100.00;153074.56;5091679;28;20242;-62
2022/09/08 06:41:57;;;;;;;5.10;3.70;;;;;;;28.44;100.00;153196.16;5091394;28;20207;-61
2022/09/08 06:44:30;;;;;;;10.90;4.03;;;;;;;29.03;98.79;153346.03;5091605;28;20192;-62
2022/09/08 06:46:58;;;;;;;4.35;3.90;;;;;;;29.43;93.41;153448.56;5091398;28;20627;-61
2022/09/08 06:49:27;;;;;;;4.80;4.43;;;;;;;30.38;86.82;153688.25;5091544;28;20626;-62
2022/09/08 06:52:01;;;;;;;4.35;3.20;;;;;;;30.12;85.77;153621.59;5091822;28;20661;-62
2022/09/08 06:54:45;;;;;;;3.97;3.38;;;;;;;30.57;84.64;153735.69;5091359;28;20253;-62
2022/09/08 06:57:32;;;;;;;4.47;3.92;;;;;;;30.38;84.68;153689.50;5091329;28;20223;-62
2022/09/08 07:00:09;;;;;;;3.83;3.40;;;;;;;30.69;82.58;153766.47;5091162;28;20203;-63
2022/09/08 07:02:58;;;;;;;6.13;3.67;;;;;;;30.38;83.26;153689.50;5091637;28;20271;-62
2022/09/08 07:05:50;;;;;;;4.28;3.85;;;;;;;30.11;85.76;153619.03;5095518;28;20595;-62
2022/09/08 07:08:40;;;;;;;10.27;4.15;;;;;;;29.65;85.05;153502.38;5095534;28;20184;-63
2022/09/08 07:11:17;;;;;;;4.65;4.20;;;;;;;29.03;88.27;153346.03;5095453;28;20614;-62
2022/09/08 07:13:54;;;;;;;4.78;3.20;;;;;;;28.31;91.16;153164.16;5095448;28;20550;-62
2022/09/08 07:16:28;;;;;;;5.38;3.40;;;;;;;27.40;99.91;152933.75;5078018;28;20601;-63
2022/09/08 07:19:00;;;;;;;3.60;3.13;;;;;;;27.31;99.68;152909.41;5095258;28;20261;-63
2022/09/08 07:21:35;;;;;;;3.10;2.80;;;;;;;27.49;99.87;152956.81;5095033;28;20283;-63
2022/09/08 07:24:05;;;;;;;2.92;2.83;;;;;;;27.39;99.90;152931.16;5095339;28;20266;-63
2022/09/08 07:26:37;;;;;;;6.75;3.20;;;;;;;27.37;97.89;152926.03;5094857;28;20202;-62
2022/09/08 07:29:12;;;;;;;3.05;2.95;;;;;;;27.46;98.02;152947.78;5094789;28;20184;-62
2022/09/08 07:31:43;;;;;;;3.22;2.92;;;;;;;27.58;98.42;152978.56;5094901;28;20211;-62
2022/09/08 07:34:18;;;;;;;5.15;3.08;;;;;;;27.82;95.41;153038.69;5094607;28;20180;-63
2022/09/08 07:36:50;;;;;;;4.07;3.10;;;;;;;27.69;97.97;153006.72;5094964;28;20226;-63
2022/09/08 07:39:23;;;;;;;3.20;3.00;;;;;;;27.79;99.80;153032.31;5094914;28;20223;-63
2022/09/08 07:41:53;;;;;;;3.55;3.22;;;;;;;27.91;97.56;153061.75;5094608;28;20184;-62
2022/09/08 07:44:21;;;;;;;3.72;3.45;;;;;;;28.04;96.02;153095.03;5094829;28;20551;-61
2022/09/08 07:47:19;;;;;;;2.50;2.40;;;;;;;28.08;89.17;153105.25;5094834;28;20639;-62
2022/09/08 07:49:52;;;;;;;3.38;3.05;;;;;;;28.18;94.51;153130.88;5094365;28;20196;-62
2022/09/08 07:52:30;;;;;;;2.92;2.72;;;;;;;27.78;90.19;153029.75;5093353;28;20202;-62
2022/09/08 07:55:10;;;;;;;2.75;2.65;;;;;;;27.54;93.49;152969.56;5094685;28;20642;-62
2022/09/08 07:57:47;;;;;;;3.15;2.90;;;;;;;27.93;95.44;153066.84;5094266;28;20190;-62
2022/09/08 08:00:18;;;;;;;3.53;3.33;;;;;;;28.19;96.33;153132.16;5094334;28;20218;-61
2022/09/08 08:03:09;;;;;;;3.45;3.22;;;;;;;28.21;96.07;153138.59;5094575;28;20554;-61
2022/09/08 08:05:46;;;;;;;3.75;3.55;;;;;;;28.00;94.32;153084.78;5094067;28;20237;-62
2022/09/08 08:08:23;;;;;;;3.30;3.08;;;;;;;28.00;95.57;153086.06;5094089;28;20194;-61
2022/09/08 08:11:01;;;;;;;4.15;3.20;;;;;;;28.21;93.18;153138.59;5094041;28;20302;-61
2022/09/08 08:13:43;;;;;;;3.03;2.83;;;;;;;27.99;91.98;153083.50;5094233;28;20184;-61
2022/09/08 08:16:13;;;;;;;4.60;2.78;;;;;;;28.01;92.10;153087.31;5092080;28;20200;-62
2022/09/08 08:18:49;;;;;;;10.93;3.92;;;;;;;28.06;89.21;153101.41;5093796;28;20196;-63
2022/09/08 08:21:23;;;;;;;4.00;2.97;;;;;;;28.29;85.96;153159.06;5093973;28;20278;-61
2022/09/08 08:24:07;;;;;;;7.43;3.22;;;;;;;28.25;87.83;153148.84;5093778;28;20194;-63
2022/09/08 08:26:43;;;;;;;3.10;2.72;;;;;;;28.40;89.79;153187.22;5094019;28;20507;-62
2022/09/08 08:29:26;;;;;;;3.88;2.85;;;;;;;28.64;88.99;153246.13;5093710;28;20194;-62
2022/09/08 08:31:59;;;;;;;2.85;2.75;;;;;;;28.41;90.21;153189.78;5093956;28;20570;-62
2022/09/08 08:34:30;;;;;;;5.10;3.05;;;;;;;28.41;91.70;153188.50;5093356;28;20186;-63
2022/09/08 08:37:01;;;;;;;3.25;3.15;;;;;;;28.31;91.64;153162.88;5087539;28;20192;-63
2022/09/08 08:39:29;;;;;;;6.75;3.17;;;;;;;28.44;95.44;153196.16;5093798;28;20578;-61
2022/09/08 08:42:17;;;;;;;3.28;3.15;;;;;;;27.92;97.41;153064.31;5093613;28;20226;-61
2022/09/08 08:44:56;;;;;;;3.20;3.03;;;;;;;27.84;97.58;153045.09;5093449;28;20189;-62
2022/09/08 08:47:44;;;;;;;3.47;3.17;;;;;;;28.00;100.00;153086.06;5091711;28;20199;-62
2022/09/08 08:50:46;;;;;;;3.17;2.83;;;;;;;28.21;100.00;153138.59;5093506;28;20184;-63
2022/09/08 08:53:39;;;;;;;3.30;3.00;;;;;;;27.82;100.00;153040.00;5093520;28;20287;-62
2022/09/08 08:56:17;;;;;;;5.93;3.58;;;;;;;27.44;100.00;152943.97;5079766;28;20295;-62
2022/09/08 08:59:18;;;;;;;3.33;3.05;;;;;;;27.53;100.00;152967.06;5093481;28;20195;-62
2022/09/08 09:02:13;;;;;;;2.78;2.58;;;;;;;27.33;100.00;152915.78;5093139;28;20184;-63
2022/09/08 09:05:07;;;;;;;6.55;3.45;;;;;;;27.48;100.00;152954.25;5093105;28;20200;-62
2022/09/08 09:08:18;;;;;;;4.78;3.10;;;;;;;27.30;100.00;152906.84;5093055;28;20287;-62
2022/09/08 09:11:02;;;;;;;3.10;2.90;;;;;;;27.23;100.00;152890.25;5092020;28;20187;-63
2022/09/08 09:13:53;;;;;;;3.53;3.20;;;;;;;27.33;100.00;152915.78;5093179;28;20656;-62
2022/09/08 09:16:39;;;;;;;3.83;3.25;;;;;;;27.31;100.00;152909.41;5092792;28;20269;-62
2022/09/08 09:19:36;;;;;;;6.35;3.05;;;;;;;27.07;100.00;152850.59;5092523;28;20184;-65
2022/09/08 09:22:12;;;;;;;3.90;3.70;;;;;;;26.74;100.00;152767.38;5092804;28;20188;-65
2022/09/08 09:24:53;;;;;;;7.05;3.00;;;;;;;27.08;100.00;152853.13;5092709;28;20188;-65
2022/09/08 09:27:33;;;;;;;3.22;3.03;;;;;;;27.23;100.00;152890.25;5092410;28;20219;-64
2022/09/08 09:30:17;;;;;;;3.63;3.20;;;;;;;27.11;100.00;152859.53;5092941;28;20184;-66
2022/09/08 09:33:06;;;;;;;6.25;2.88;;;;;;;26.54;100.00;152714.94;5092522;28;20192;-64
2022/09/08 09:36:02;;;;;;;3.38;3.08;;;;;;;26.70;100.00;152757.16;5089255;28;20515;-65
2022/09/08 09:38:57;;;;;;;3.38;3.17;;;;;;;26.67;100.00;152748.22;5092433;28;20195;-65
2022/09/08 09:41:52;;;;;;;3.00;2.80;;;;;;;26.47;100.00;152698.34;5086561;28;20250;-65
2022/09/08 09:44:42;;;;;;;5.38;3.35;;;;;;;26.53;100.00;152712.38;5091027;28;20188;-65
2022/09/08 09:47:30;;;;;;;5.13;3.08;;;;;;;26.68;100.00;152750.78;5091995;28;20275;-65
2022/09/08 09:50:33;;;;;;;3.55;2.95;;;;;;;26.43;100.00;152686.84;5092049;28;20188;-65
2022/09/08 09:53:23;;;;;;;3.45;3.00;;;;;;;26.58;100.00;152726.47;5089463;28;20263;-64
2022/09/08 09:56:27;;;;;;;4.85;3.17;;;;;;;26.83;100.00;152789.13;5059574;28;20192;-65
2022/09/08 09:59:33;;;;;;;7.65;3.20;;;;;;;26.75;100.00;152768.66;5059003;28;20210;-63
2022/09/08 10:02:18;;;;;;;3.47;3.28;;;;;;;26.63;100.00;152737.97;4997559;28;20198;-62
2022/09/08 10:05:18;;;;;;;3.38;2.72;;;;;;;26.98;100.00;152826.28;5077853;28;20195;-63
2022/09/08 10:08:09;;;;;;;4.30;2.92;;;;;;;26.81;100.00;152784.03;5092361;28;20226;-62
2022/09/08 10:10:56;;;;;;;6.63;2.50;;;;;;;27.14;100.00;152867.22;5092063;28;20190;-61
2022/09/08 10:13:53;;;;;;;4.45;3.50;;;;;;;27.33;100.00;152915.78;5092036;28;20188;-62
2022/09/08 10:16:42;;;;;;;3.58;3.28;;;;;;;27.40;100.00;152932.47;5091712;28;20238;-63
2022/09/08 10:19:50;;;;;;;6.60;3.45;;;;;;;27.49;100.00;152955.53;5092037;28;20222;-60
2022/09/08 10:22:57;;;;;;;5.32;2.85;;;;;;;27.42;100.00;152938.84;5092152;28;20681;-62
2022/09/08 10:25:47;;;;;;;7.35;2.80;;;;;;;27.06;100.00;152846.75;5091786;28;20179;-62
2022/09/08 10:28:47;;;;;;;3.38;3.15;;;;;;;27.69;100.00;153006.72;5091785;28;20188;-61
2022/09/08 10:31:35;;;;;;;3.55;2.30;;;;;;;27.95;100.00;153073.28;5091657;28;20188;-62
2022/09/08 10:34:38;;;;;;;3.28;3.05;;;;;;;27.75;100.00;153020.81;5091974;28;20188;-61
2022/09/08 10:37:18;;;;;;;2.92;2.72;;;;;;;27.67;100.00;153001.56;5091203;28;20209;-64
2022/09/08 10:40:09;;;;;;;5.60;2.83;;;;;;;27.84;100.00;153043.84;5091726;28;20233;-63
2022/09/08 10:42:58;;;;;;;2.92;2.72;;;;;;;27.78;100.00;153029.75;5091525;28;20184;-62
2022/09/08 10:46:14;;;;;;;3.10;2.80;;;;;;;27.98;100.00;153080.94;5091543;28;20200;-63
2022/09/08 10:48:57;;;;;;;5.82;3.00;;;;;;;28.07;100.00;153103.97;5091257;28;20194;-63
2022/09/08 10:51:52;;;;;;;3.42;2.75;;;;;;;28.48;100.00;153207.69;5091750;28;20680;-62
2022/09/08 10:54:49;;;;;;;2.60;2.50;;;;;;;29.05;98.72;153351.19;5091815;28;20188;-63
2022/09/08 10:57:34;;;;;;;8.18;2.85;;;;;;;29.83;92.54;153548.50;5091558;28;20184;-63
2022/09/08 11:00:11;;;;;;;4.63;2.92;;;;;;;30.42;88.94;153698.50;5088934;28;20256;-62
2022/09/08 11:02:48;;;;;;;5.95;2.88;;;;;;;28.84;96.37;153298.69;5091256;28;20180;-62
2022/09/08 11:05:48;;;;;;;3.03;2.83;;;;;;;27.32;100.00;152913.28;5091472;28;20198;-62
2022/09/08 11:09:05;;;;;;;4.65;2.95;;;;;;;26.36;100.00;152670.19;5091260;28;20187;-62
2022/09/08 11:11:58;;;;;;;7.18;3.10;;;;;;;26.11;100.00;152606.22;5028802;28;20553;-62
2022/09/08 11:15:03;;;;;;;4.30;3.15;;;;;;;25.91;100.00;152556.38;5086015;28;20223;-60
2022/09/08 11:17:43;;;;;;;3.38;2.92;;;;;;;25.58;100.00;152473.34;5091239;28;20240;-61
2022/09/08 11:20:18;;;;;;;6.63;3.17;;;;;;;25.68;100.00;152498.84;5091161;28;20207;-61
2022/09/08 11:23:06;;;;;;;6.93;3.05;;;;;;;25.58;100.00;152473.34;5091320;28;20191;-62
2022/09/08 11:25:56;;;;;;;5.45;3.05;;;;;;;25.42;100.00;152433.63;5091002;28;20188;-62
2022/09/08 11:28:43;;;;;;;7.07;3.55;;;;;;;25.40;100.00;152427.25;5091161;28;20275;-62
2022/09/08 11:31:24;;;;;;;4.05;3.40;;;;;;;25.45;100.00;152440.06;5091026;28;20271;-62
2022/09/08 11:34:20;;;;;;;8.00;3.08;;;;;;;25.69;100.00;152501.44;5091305;28;20216;-63
2022/09/08 11:37:19;;;;;;;3.30;3.10;;;;;;;25.46;100.00;152443.84;5085513;28;20217;-62
2022/09/08 11:39:57;;;;;;;4.43;3.28;;;;;;;25.34;100.00;152411.91;5091309;28;20252;-62
2022/09/08 11:42:49;;;;;;;2.83;2.72;;;;;;;25.26;100.00;152391.47;5090778;28;20267;-63
2022/09/08 11:45:27;;;;;;;3.85;3.15;;;;;;;25.37;100.00;152420.91;5090659;28;20192;-62
2022/09/08 11:48:31;;;;;;;2.95;2.75;;;;;;;25.42;100.00;152432.34;5089919;28;20658;-61
2022/09/08 11:51:19;;;;;;;3.15;2.92;;;;;;;25.54;100.00;152463.09;5012707;28;20210;-62
2022/09/08 11:54:13;;;;;;;3.75;3.42;;;;;;;25.58;100.00;152473.34;5087088;28;20249;-63
2022/09/08 11:57:15;;;;;;;3.58;2.65;;;;;;;25.48;100.00;152447.72;5094472;28;20203;-61
2022/09/08 12:00:04;;;;;;;5.15;2.90;;;;;;;25.52;100.00;152457.94;5074137;28;20646;-62
2022/09/08 12:03:06;;;;;;;3.75;3.20;;;;;;;25.57;100.00;152470.75;5074027;28;20189;-62
2022/09/08 12:05:46;;;;;;;2.78;2.67;;;;;;;25.45;100.00;152440.06;5094207;28;20264;-63